Airport View

Enter AWOS ICAO identifier for current METAR.

ex. KFNL

KAHN 191851Z VRB04KT 10SM BKN038 OVC049 28/21 A2985 RMK AO2 LTG DSNT SW SLP100 T02780206

19 Jun 2019 19:09

Frequency: 132.875

Phone: 706-613-7373

Other Area AWOS: KWDR - KJCA - KD73 - K3J7

TAF KAHN 191738Z 1918/2018 26008KT P6SM SHRA SCT030 BKN040 TEMPO 1919/1923 VRB15G25KT 3SM TSRA BKN030CB FM200800 24007KT P6SM BKN020 FM201000 24009KT P6SM BKN008 FM201400 25008KT P6SM BKN025 FM201700 24011KT P6SM SHRA BKN035